Time;durP1;ratioP1;P1;durP2;ratioP2;P2;SDS_P1;SDS_P2;PMS_P1;PMS_P2;Temp;Humidity;BMP_temperature;BMP_pressure;BME280_temperature;BME280_humidity;BME280_pressure;Samples;Min_cycle;Max_cycle;Signal;HPM_P1;HPM_P2
2022/10/12 00:02:15;;;;;;;;;;;;;;;;;;5081626;28;19912;-66
2022/10/12 00:04:40;;;;;;;;;;;;;;;;;;5069435;28;19954;-66
2022/10/12 00:07:05;;;;;;;;;;;;;;;;;;5071934;28;19961;-66
2022/10/12 00:09:30;;;;;;;;;;;;;;;;;;5069611;28;19908;-66
2022/10/12 00:11:55;;;;;;;;;;;;;;;;;;5072279;28;19912;-66
2022/10/12 00:14:20;;;;;;;;;;;;;;;;;;5099780;28;19963;-66
2022/10/12 00:16:45;;;;;;;;;;;;;;;;;;5068100;28;20368;-66
2022/10/12 00:19:11;;;;;;;;;;;;;;;;;;5101000;28;20132;-66
2022/10/12 00:21:36;;;;;;;;;;;;;;;;;;5070724;28;19916;-66
2022/10/12 00:24:01;;;;;;;;;;;;;;;;;;5070242;28;19921;-66
2022/10/12 00:26:26;;;;;;;;;;;;;;;;;;5069970;28;19920;-66
2022/10/12 00:28:51;;;;;;;;;;;;;;;;;;5104274;28;19913;-67
2022/10/12 00:31:16;;;;;;;;;;;;;;;;;;5073063;28;19951;-67
2022/10/12 00:33:41;;;;;;;;;;;;;;;;;;5069641;28;19921;-67
2022/10/12 00:36:07;;;;;;;;;;;;;;;;;;5070047;28;19944;-67
2022/10/12 00:38:32;;;;;;;;;;;;;;;;;;5079359;28;20034;-67
2022/10/12 00:40:57;;;;;;;;;;;;;;;;;;5096764;28;19965;-67
2022/10/12 00:43:22;;;;;;;;;;;;;;;;;;5071749;28;19931;-67
2022/10/12 00:45:47;;;;;;;;;;;;;;;;;;5102650;28;19920;-67
2022/10/12 00:48:12;;;;;;;;;;;;;;;;;;5088998;28;19928;-67
2022/10/12 00:50:37;;;;;;;;;;;;;;;;;;5066793;28;19966;-67
2022/10/12 00:53:02;;;;;;;;;;;;;;;;;;5072298;28;19912;-67
2022/10/12 00:55:28;;;;;;;;;;;;;;;;;;5065626;28;20365;-67
2022/10/12 00:57:53;;;;;;;;;;;;;;;;;;5060103;28;19939;-67
2022/10/12 01:00:18;;;;;;;;;;;;;;;;;;5071085;28;19920;-67
2022/10/12 01:02:43;;;;;;;;;;;;;;;;;;5052153;28;19916;-67
2022/10/12 01:05:08;;;;;;;;;;;;;;;;;;5066017;28;19921;-67
2022/10/12 01:07:33;;;;;;;;;;;;;;;;;;5071117;28;19944;-66
2022/10/12 01:09:59;;;;;;;;;;;;;;;;;;5087680;28;20222;-66
2022/10/12 01:12:24;;;;;;;;;;;;;;;;;;5101845;28;19912;-66
2022/10/12 01:14:49;;;;;;;;;;;;;;;;;;5108790;28;19951;-66
2022/10/12 01:17:14;;;;;;;;;;;;;;;;;;5073804;28;20286;-66
2022/10/12 01:19:39;;;;;;;;;;;;;;;;;;5073922;28;19920;-66
2022/10/12 01:22:04;;;;;;;;;;;;;;;;;;5072689;28;20039;-67
2022/10/12 01:24:30;;;;;;;;;;;;;;;;;;5073358;28;19920;-66
2022/10/12 01:26:55;;;;;;;;;;;;;;;;;;5073633;28;20362;-67
2022/10/12 01:29:20;;;;;;;;;;;;;;;;;;5066516;28;19909;-66
2022/10/12 01:31:45;;;;;;;;;;;;;;;;;;5064111;28;19975;-66
2022/10/12 01:34:10;;;;;;;;;;;;;;;;;;5074979;28;19963;-67
2022/10/12 01:36:35;;;;;;;;;;;;;;;;;;5067908;28;19917;-66
2022/10/12 01:39:00;;;;;;;;;;;;;;;;;;5055191;28;19932;-66
2022/10/12 01:41:25;;;;;;;;;;;;;;;;;;5061395;28;20349;-66
2022/10/12 01:43:51;;;;;;;;;;;;;;;;;;5099220;28;19952;-66
2022/10/12 01:46:16;;;;;;;;;;;;;;;;;;5069116;28;19916;-66
2022/10/12 01:48:41;;;;;;;;;;;;;;;;;;5086817;28;19912;-66
2022/10/12 01:51:06;;;;;;;;;;;;;;;;;;5072839;28;19957;-66
2022/10/12 01:53:31;;;;;;;;;;;;;;;;;;5107023;28;20388;-66
2022/10/12 01:55:56;;;;;;;;;;;;;;;;;;5106039;28;20262;-66
2022/10/12 01:58:21;;;;;;;;;;;;;;;;;;5075415;28;19920;-66
2022/10/12 02:00:47;;;;;;;;;;;;;;;;;;5071327;28;19996;-66
2022/10/12 02:03:12;;;;;;;;;;;;;;;;;;5094074;28;20048;-66
2022/10/12 02:05:37;;;;;;;;;;;;;;;;;;5075188;28;19965;-66
2022/10/12 02:08:02;;;;;;;;;;;;;;;;;;5075099;28;19977;-66
2022/10/12 02:10:27;;;;;;;;;;;;;;;;;;5071411;28;19908;-66
2022/10/12 02:12:52;;;;;;;;;;;;;;;;;;5054510;28;19912;-66
2022/10/12 02:15:17;;;;;;;;;;;;;;;;;;5067702;28;19927;-67
2022/10/12 02:17:43;;;;;;;;;;;;;;;;;;5072286;28;20365;-67
2022/10/12 02:20:08;;;;;;;;;;;;;;;;;;5078367;28;20007;-67
2022/10/12 02:22:34;;;;;;;;;;;;;;;;;;5072325;28;20067;-66
2022/10/12 02:24:59;;;;;;;;;;;;;;;;;;5070851;28;19962;-65
2022/10/12 02:27:24;;;;;;;;;;;;;;;;;;5071812;28;19924;-66
2022/10/12 02:29:49;;;;;;;;;;;;;;;;;;5103370;27;20004;-66
2022/10/12 02:32:15;;;;;;;;;;;;;;;;;;5074466;28;19931;-67
2022/10/12 02:34:40;;;;;;;;;;;;;;;;;;5073883;28;19909;-66
2022/10/12 02:37:05;;;;;;;;;;;;;;;;;;5071313;28;19916;-67
2022/10/12 02:39:30;;;;;;;;;;;;;;;;;;5104593;28;19993;-66
2022/10/12 02:41:55;;;;;;;;;;;;;;;;;;5104966;28;20292;-66
2022/10/12 02:44:20;;;;;;;;;;;;;;;;;;5106343;28;19916;-66
2022/10/12 02:46:45;;;;;;;;;;;;;;;;;;5074743;28;19921;-66
2022/10/12 02:49:11;;;;;;;;;;;;;;;;;;5071040;28;19928;-66
2022/10/12 02:51:36;;;;;;;;;;;;;;;;;;5073296;28;20292;-67
2022/10/12 02:54:01;;;;;;;;;;;;;;;;;;5072707;28;19908;-66
2022/10/12 02:56:26;;;;;;;;;;;;;;;;;;5070376;28;19935;-66
2022/10/12 02:58:51;;;;;;;;;;;;;;;;;;5066985;28;19963;-66
2022/10/12 03:01:16;;;;;;;;;;;;;;;;;;5084698;28;19947;-67
2022/10/12 03:03:41;;;;;;;;;;;;;;;;;;5092089;28;19916;-67
2022/10/12 03:06:07;;;;;;;;;;;;;;;;;;5077128;28;19908;-67
2022/10/12 03:08:32;;;;;;;;;;;;;;;;;;5068731;28;20392;-67
2022/10/12 03:10:57;;;;;;;;;;;;;;;;;;5072224;28;19998;-67
2022/10/12 03:13:22;;;;;;;;;;;;;;;;;;5072903;28;19927;-67
2022/10/12 03:15:47;;;;;;;;;;;;;;;;;;5067401;28;19932;-67
2022/10/12 03:18:12;;;;;;;;;;;;;;;;;;5071843;28;19923;-67
2022/10/12 03:20:37;;;;;;;;;;;;;;;;;;5073273;28;19969;-67
2022/10/12 03:23:02;;;;;;;;;;;;;;;;;;5071220;28;19935;-66
2022/10/12 03:25:28;;;;;;;;;;;;;;;;;;5105417;28;19915;-67
2022/10/12 03:27:53;;;;;;;;;;;;;;;;;;5070654;28;22175;-66
2022/10/12 03:30:18;;;;;;;;;;;;;;;;;;5064382;28;20407;-66
2022/10/12 03:32:43;;;;;;;;;;;;;;;;;;5065530;28;20316;-67
2022/10/12 03:35:08;;;;;;;;;;;;;;;;;;5071771;28;19909;-67
2022/10/12 03:37:34;;;;;;;;;;;;;;;;;;5072182;28;20031;-67
2022/10/12 03:39:59;;;;;;;;;;;;;;;;;;5070914;28;19958;-66
2022/10/12 03:42:24;;;;;;;;;;;;;;;;;;5073025;28;19962;-66
2022/10/12 03:44:49;;;;;;;;;;;;;;;;;;5104647;28;20360;-67
2022/10/12 03:47:15;;;;;;;;;;;;;;;;;;5095859;28;19927;-67
2022/10/12 03:49:40;;;;;;;;;;;;;;;;;;5069012;28;19913;-66
2022/10/12 03:52:05;;;;;;;;;;;;;;;;;;5083327;28;19916;-66
2022/10/12 03:54:30;;;;;;;;;;;;;;;;;;5071009;28;20369;-66
2022/10/12 03:56:55;;;;;;;;;;;;;;;;;;5088315;28;20414;-66
2022/10/12 03:59:20;;;;;;;;;;;;;;;;;;5070790;28;19916;-66
2022/10/12 04:01:46;;;;;;;;;;;;;;;;;;5072652;28;20369;-66
2022/10/12 04:04:11;;;;;;;;;;;;;;;;;;5081206;28;19919;-68
2022/10/12 04:06:36;;;;;;;;;;;;;;;;;;5085002;28;19924;-67
2022/10/12 04:09:01;;;;;;;;;;;;;;;;;;5069964;28;19966;-66
2022/10/12 04:11:26;;;;;;;;;;;;;;;;;;5075335;28;19939;-66
2022/10/12 04:13:51;;;;;;;;;;;;;;;;;;5071093;28;19913;-67
2022/10/12 04:16:16;;;;;;;;;;;;;;;;;;5104876;28;19909;-67
2022/10/12 04:18:42;;;;;;;;;;;;;;;;;;5103196;28;19916;-66
2022/10/12 04:21:13;;;;;;;;;;;;;;;;;;5065961;28;19970;-66
2022/10/12 04:23:38;;;;;;;;;;;;;;;;;;5071464;28;19913;-67
2022/10/12 04:26:03;;;;;;;;;;;;;;;;;;5063047;28;19920;-66
2022/10/12 04:28:28;;;;;;;;;;;;;;;;;;5079954;28;20003;-67
2022/10/12 04:30:54;;;;;;;;;;;;;;;;;;5070922;28;19919;-67
2022/10/12 04:33:19;;;;;;;;;;;;;;;;;;5070965;28;20365;-66
2022/10/12 04:35:44;;;;;;;;;;;;;;;;;;5100059;28;19920;-68
2022/10/12 04:38:09;;;;;;;;;;;;;;;;;;5053089;28;20018;-66
2022/10/12 04:40:34;;;;;;;;;;;;;;;;;;5091834;28;19959;-66
2022/10/12 04:42:59;;;;;;;;;;;;;;;;;;5071542;28;19999;-67
2022/10/12 04:45:24;;;;;;;;;;;;;;;;;;5055968;28;19920;-67
2022/10/12 04:47:50;;;;;;;;;;;;;;;;;;5072563;28;19916;-67
2022/10/12 04:50:15;;;;;;;;;;;;;;;;;;5063510;28;19913;-67
2022/10/12 04:52:40;;;;;;;;;;;;;;;;;;5066221;28;19916;-67
2022/10/12 04:55:05;;;;;;;;;;;;;;;;;;5060747;28;19913;-67
2022/10/12 04:57:30;;;;;;;;;;;;;;;;;;5070229;28;19912;-70
2022/10/12 04:59:55;;;;;;;;;;;;;;;;;;5070439;28;20418;-65
2022/10/12 05:02:20;;;;;;;;;;;;;;;;;;5071568;28;20280;-67
2022/10/12 05:04:46;;;;;;;;;;;;;;;;;;5068387;28;20341;-67
2022/10/12 05:07:11;;;;;;;;;;;;;;;;;;5067505;28;19970;-66
2022/10/12 05:09:36;;;;;;;;;;;;;;;;;;5060344;28;19912;-68
2022/10/12 05:12:01;;;;;;;;;;;;;;;;;;5059557;28;19913;-68
2022/10/12 05:14:26;;;;;;;;;;;;;;;;;;5069321;28;19927;-67
2022/10/12 05:16:51;;;;;;;;;;;;;;;;;;5091440;28;19910;-68
2022/10/12 05:19:16;;;;;;;;;;;;;;;;;;5062827;28;20258;-68
2022/10/12 05:21:42;;;;;;;;;;;;;;;;;;5063534;28;19924;-68
2022/10/12 05:24:07;;;;;;;;;;;;;;;;;;5069056;28;19919;-69
2022/10/12 05:26:32;;;;;;;;;;;;;;;;;;5070146;28;19932;-68
2022/10/12 05:28:57;;;;;;;;;;;;;;;;;;5057912;28;19920;-67
2022/10/12 05:31:22;;;;;;;;;;;;;;;;;;5050544;28;19962;-68
2022/10/12 05:33:47;;;;;;;;;;;;;;;;;;5056426;28;19918;-68
2022/10/12 05:36:12;;;;;;;;;;;;;;;;;;5062876;28;19916;-68
2022/10/12 05:38:38;;;;;;;;;;;;;;;;;;5069743;28;19927;-67
2022/10/12 05:41:03;;;;;;;;;;;;;;;;;;5070821;28;19909;-68
2022/10/12 05:43:28;;;;;;;;;;;;;;;;;;5068293;28;19917;-68
2022/10/12 05:45:53;;;;;;;;;;;;;;;;;;5070440;28;19970;-68
2022/10/12 05:48:18;;;;;;;;;;;;;;;;;;5071426;28;19923;-68
2022/10/12 05:50:44;;;;;;;;;;;;;;;;;;5091261;28;19912;-68
2022/10/12 05:53:09;;;;;;;;;;;;;;;;;;5070750;28;19999;-67
2022/10/12 05:55:34;;;;;;;;;;;;;;;;;;5087012;28;19953;-68
2022/10/12 05:57:59;;;;;;;;;;;;;;;;;;5073598;28;20002;-68
2022/10/12 06:00:24;;;;;;;;;;;;;;;;;;5104633;28;19920;-68
2022/10/12 06:02:49;;;;;;;;;;;;;;;;;;5055990;28;19912;-68
2022/10/12 06:05:14;;;;;;;;;;;;;;;;;;5065322;28;19916;-68
2022/10/12 06:07:40;;;;;;;;;;;;;;;;;;5072190;28;19931;-68
2022/10/12 06:10:05;;;;;;;;;;;;;;;;;;5067047;28;20270;-68
2022/10/12 06:12:30;;;;;;;;;;;;;;;;;;5069477;28;20361;-68
2022/10/12 06:14:55;;;;;;;;;;;;;;;;;;5102755;28;19959;-68
2022/10/12 06:17:20;;;;;;;;;;;;;;;;;;5071675;28;19954;-68
2022/10/12 06:19:45;;;;;;;;;;;;;;;;;;5068658;28;19920;-68
2022/10/12 06:22:10;;;;;;;;;;;;;;;;;;5099886;28;19916;-68
2022/10/12 06:24:37;;;;;;;;;;;;;;;;;;5067405;28;19989;-68
2022/10/12 06:27:02;;;;;;;;;;;;;;;;;;5094826;28;19920;-68
2022/10/12 06:29:27;;;;;;;;;;;;;;;;;;5070798;28;19920;-67
2022/10/12 06:31:53;;;;;;;;;;;;;;;;;;5056574;28;20003;-67
2022/10/12 06:34:18;;;;;;;;;;;;;;;;;;5086563;28;19909;-68
2022/10/12 06:36:43;;;;;;;;;;;;;;;;;;5092209;28;20273;-68
2022/10/12 06:39:08;;;;;;;;;;;;;;;;;;5073270;28;19913;-68
2022/10/12 06:41:33;;;;;;;;;;;;;;;;;;5057240;28;19913;-66
2022/10/12 06:43:58;;;;;;;;;;;;;;;;;;5102523;28;19958;-67
2022/10/12 06:46:23;;;;;;;;;;;;;;;;;;5063041;28;20020;-68
2022/10/12 06:48:49;;;;;;;;;;;;;;;;;;5066838;28;19916;-68
2022/10/12 06:51:14;;;;;;;;;;;;;;;;;;5061908;28;19920;-68
2022/10/12 06:53:39;;;;;;;;;;;;;;;;;;5062683;28;19926;-67
2022/10/12 06:56:04;;;;;;;;;;;;;;;;;;5063049;28;19939;-67
2022/10/12 06:58:29;;;;;;;;;;;;;;;;;;5102570;28;19995;-68
2022/10/12 07:00:54;;;;;;;;;;;;;;;;;;5103130;27;20003;-68
2022/10/12 07:03:20;;;;;;;;;;;;;;;;;;5083608;28;19913;-68
2022/10/12 07:05:45;;;;;;;;;;;;;;;;;;5073328;28;19908;-68
2022/10/12 07:08:10;;;;;;;;;;;;;;;;;;5072149;28;19925;-67
2022/10/12 07:10:35;;;;;;;;;;;;;;;;;;5064487;28;19966;-68
2022/10/12 07:13:00;;;;;;;;;;;;;;;;;;5081340;28;19909;-67
2022/10/12 07:15:26;;;;;;;;;;;;;;;;;;5063861;28;19957;-67
2022/10/12 07:17:51;;;;;;;;;;;;;;;;;;5066257;28;19912;-66
2022/10/12 07:20:16;;;;;;;;;;;;;;;;;;5068092;28;20425;-68
2022/10/12 07:22:41;;;;;;;;;;;;;;;;;;5073509;28;19952;-67
2022/10/12 07:25:06;;;;;;;;;;;;;;;;;;5105872;28;19909;-67
2022/10/12 07:27:32;;;;;;;;;;;;;;;;;;5105431;28;19921;-67
2022/10/12 07:29:57;;;;;;;;;;;;;;;;;;5072462;28;19958;-68
2022/10/12 07:32:22;;;;;;;;;;;;;;;;;;5072604;28;19916;-67
2022/10/12 07:34:47;;;;;;;;;;;;;;;;;;5121708;27;20261;-67
2022/10/12 07:37:14;;;;;;;;;;;;;;;;;;5082431;28;20292;-67
2022/10/12 07:39:40;;;;;;;;;;;;;;;;;;5071375;28;19931;-66
2022/10/12 07:42:05;;;;;;;;;;;;;;;;;;5071138;28;20147;-68
2022/10/12 07:44:30;;;;;;;;;;;;;;;;;;5105674;28;20296;-68
2022/10/12 07:46:55;;;;;;;;;;;;;;;;;;5072985;28;20343;-67
2022/10/12 07:49:20;;;;;;;;;;;;;;;;;;5068490;28;19912;-67
2022/10/12 07:51:46;;;;;;;;;;;;;;;;;;5067630;28;19959;-67
2022/10/12 07:54:11;;;;;;;;;;;;;;;;;;5104747;28;19931;-67
2022/10/12 07:56:36;;;;;;;;;;;;;;;;;;5070982;28;20258;-67
2022/10/12 07:59:02;;;;;;;;;;;;;;;;;;5069371;28;19920;-67
2022/10/12 08:01:27;;;;;;;;;;;;;;;;;;5071474;28;19913;-67
2022/10/12 08:03:52;;;;;;;;;;;;;;;;;;5059883;28;19916;-67
2022/10/12 08:06:17;;;;;;;;;;;;;;;;;;5082583;28;19919;-68
2022/10/12 08:08:42;;;;;;;;;;;;;;;;;;5078747;28;19957;-67
2022/10/12 08:11:07;;;;;;;;;;;;;;;;;;5078129;28;19917;-68
2022/10/12 08:13:32;;;;;;;;;;;;;;;;;;5067743;28;19916;-67
2022/10/12 08:15:58;;;;;;;;;;;;;;;;;;5084482;28;20327;-67
2022/10/12 08:18:23;;;;;;;;;;;;;;;;;;5072623;28;19912;-67
2022/10/12 08:20:48;;;;;;;;;;;;;;;;;;5097014;28;19923;-68
2022/10/12 08:23:13;;;;;;;;;;;;;;;;;;5063732;28;19919;-68
2022/10/12 08:25:38;;;;;;;;;;;;;;;;;;5069372;28;19916;-68
2022/10/12 08:28:03;;;;;;;;;;;;;;;;;;5070723;28;19920;-68
2022/10/12 08:30:28;;;;;;;;;;;;;;;;;;5069613;28;19923;-68
2022/10/12 08:32:54;;;;;;;;;;;;;;;;;;5071832;28;19913;-68
2022/10/12 08:35:19;;;;;;;;;;;;;;;;;;5070122;28;20323;-68
2022/10/12 08:37:44;;;;;;;;;;;;;;;;;;5086175;28;20377;-67
2022/10/12 08:40:09;;;;;;;;;;;;;;;;;;5081371;28;19935;-67
2022/10/12 08:42:35;;;;;;;;;;;;;;;;;;5084271;28;20323;-67
2022/10/12 08:45:00;;;;;;;;;;;;;;;;;;5066026;28;19956;-67
2022/10/12 08:47:25;;;;;;;;;;;;;;;;;;5052028;28;19939;-67
2022/10/12 08:49:50;;;;;;;;;;;;;;;;;;5093295;28;19912;-67
2022/10/12 08:52:15;;;;;;;;;;;;;;;;;;5054210;28;20463;-67
2022/10/12 08:54:40;;;;;;;;;;;;;;;;;;5068086;28;20357;-67
2022/10/12 08:57:05;;;;;;;;;;;;;;;;;;5088745;28;19999;-67
2022/10/12 08:59:31;;;;;;;;;;;;;;;;;;5102561;28;19920;-67
2022/10/12 09:01:56;;;;;;;;;;;;;;;;;;5104615;28;19913;-67
2022/10/12 09:04:21;;;;;;;;;;;;;;;;;;5069541;28;19919;-67
2022/10/12 09:06:46;;;;;;;;;;;;;;;;;;5070876;28;20027;-67
2022/10/12 09:09:11;;;;;;;;;;;;;;;;;;5055006;28;20418;-68
2022/10/12 09:11:36;;;;;;;;;;;;;;;;;;5051537;28;20292;-66
2022/10/12 09:14:01;;;;;;;;;;;;;;;;;;5062392;28;19944;-67
2022/10/12 09:16:27;;;;;;;;;;;;;;;;;;5102110;28;19913;-67
2022/10/12 09:18:52;;;;;;;;;;;;;;;;;;5067970;28;20021;-68
2022/10/12 09:21:17;;;;;;;;;;;;;;;;;;5069001;28;20006;-67
2022/10/12 09:23:46;;;;;;;;;;;;;;;;;;5073538;28;19916;-66
2022/10/12 09:26:11;;;;;;;;;;;;;;;;;;5067356;28;19947;-66
2022/10/12 09:28:36;;;;;;;;;;;;;;;;;;5071804;28;19963;-67
2022/10/12 09:31:02;;;;;;;;;;;;;;;;;;5074671;28;19908;-67
2022/10/12 09:33:27;;;;;;;;;;;;;;;;;;5072308;28;19921;-67
2022/10/12 09:35:52;;;;;;;;;;;;;;;;;;5071090;28;19916;-67
2022/10/12 09:38:17;;;;;;;;;;;;;;;;;;5071885;28;19919;-67
2022/10/12 09:40:42;;;;;;;;;;;;;;;;;;5071955;28;19920;-67
2022/10/12 09:43:07;;;;;;;;;;;;;;;;;;5077390;28;19916;-67
2022/10/12 09:45:32;;;;;;;;;;;;;;;;;;5072338;28;19958;-67
2022/10/12 09:47:58;;;;;;;;;;;;;;;;;;5069957;28;20123;-67
2022/10/12 09:50:23;;;;;;;;;;;;;;;;;;5068979;28;20111;-67
2022/10/12 09:52:49;;;;;;;;;;;;;;;;;;5069845;28;19915;-66
2022/10/12 09:55:14;;;;;;;;;;;;;;;;;;5073521;28;19919;-66
2022/10/12 09:57:39;;;;;;;;;;;;;;;;;;5067764;28;20238;-67
2022/10/12 10:00:08;;;;;;;;;;;;;;;;;;5072776;28;20292;-66
2022/10/12 10:02:33;;;;;;;;;;;;;;;;;;5072534;28;19916;-66
2022/10/12 10:04:58;;;;;;;;;;;;;;;;;;5070185;28;19954;-66
2022/10/12 10:07:23;;;;;;;;;;;;;;;;;;5070401;28;20337;-66
2022/10/12 10:09:49;;;;;;;;;;;;;;;;;;5072060;28;20280;-67
2022/10/12 10:12:14;;;;;;;;;;;;;;;;;;5070257;28;19938;-66
2022/10/12 10:14:39;;;;;;;;;;;;;;;;;;5072877;28;19912;-67
2022/10/12 10:17:04;;;;;;;;;;;;;;;;;;5073540;28;20070;-66
2022/10/12 10:19:29;;;;;;;;;;;;;;;;;;5067247;28;19962;-66
2022/10/12 10:21:54;;;;;;;;;;;;;;;;;;5071713;28;19923;-67
2022/10/12 10:24:20;;;;;;;;;;;;;;;;;;5071492;28;19915;-67
2022/10/12 10:26:45;;;;;;;;;;;;;;;;;;5070684;28;19944;-67
2022/10/12 10:29:10;;;;;;;;;;;;;;;;;;5069276;28;20288;-66
2022/10/12 10:31:35;;;;;;;;;;;;;;;;;;5072747;28;19973;-66
2022/10/12 10:34:01;;;;;;;;;;;;;;;;;;5071451;28;19966;-67
2022/10/12 10:36:26;;;;;;;;;;;;;;;;;;5073401;28;20422;-67
2022/10/12 10:38:51;;;;;;;;;;;;;;;;;;5069517;28;19917;-66
2022/10/12 10:41:19;;;;;;;;;;;;;;;;;;5071908;28;20073;-67
2022/10/12 10:43:44;;;;;;;;;;;;;;;;;;5103250;28;19913;-67
2022/10/12 10:46:09;;;;;;;;;;;;;;;;;;5105770;28;19920;-66
2022/10/12 10:48:34;;;;;;;;;;;;;;;;;;5070281;28;19952;-67
2022/10/12 10:50:59;;;;;;;;;;;;;;;;;;5071318;28;19912;-68
2022/10/12 10:53:25;;;;;;;;;;;;;;;;;;5071452;28;20005;-66
2022/10/12 10:55:50;;;;;;;;;;;;;;;;;;5065903;28;21127;-64
2022/10/12 10:58:15;;;;;;;;;;;;;;;;;;5065306;28;19921;-63
2022/10/12 11:00:40;;;;;;;;;;;;;;;;;;5065433;28;19916;-63
2022/10/12 11:03:05;;;;;;;;;;;;;;;;;;5093416;28;19912;-63
2022/10/12 11:05:30;;;;;;;;;;;;;;;;;;5075037;28;19916;-63
2022/10/12 11:07:55;;;;;;;;;;;;;;;;;;5071148;28;19917;-63
2022/10/12 11:10:21;;;;;;;;;;;;;;;;;;5068404;28;19919;-64
2022/10/12 11:12:48;;;;;;;;;;;;;;;;;;5058565;28;20359;-64
2022/10/12 11:15:13;;;;;;;;;;;;;;;;;;5057804;28;19921;-63
2022/10/12 11:17:38;;;;;;;;;;;;;;;;;;5058192;28;19966;-62
2022/10/12 11:20:04;;;;;;;;;;;;;;;;;;5060250;28;19920;-63
2022/10/12 11:22:29;;;;;;;;;;;;;;;;;;5073650;28;20383;-62
2022/10/12 11:24:54;;;;;;;;;;;;;;;;;;5069433;28;19939;-63
2022/10/12 11:27:19;;;;;;;;;;;;;;;;;;5071984;28;19916;-62
2022/10/12 11:29:44;;;;;;;;;;;;;;;;;;5103947;28;19970;-63
2022/10/12 11:32:09;;;;;;;;;;;;;;;;;;5071531;28;20280;-63
2022/10/12 11:34:35;;;;;;;;;;;;;;;;;;5058976;28;19935;-63
2022/10/12 11:37:00;;;;;;;;;;;;;;;;;;5053093;28;19931;-63
2022/10/12 11:39:25;;;;;;;;;;;;;;;;;;5067079;28;19916;-63
2022/10/12 11:41:50;;;;;;;;;;;;;;;;;;5071509;28;19909;-63
2022/10/12 11:44:15;;;;;;;;;;;;;;;;;;5061864;28;20007;-64
2022/10/12 11:46:40;;;;;;;;;;;;;;;;;;5072887;28;19916;-63
2022/10/12 11:49:05;;;;;;;;;;;;;;;;;;5068378;28;19912;-64
2022/10/12 11:51:31;;;;;;;;;;;;;;;;;;5066593;28;20357;-63
2022/10/12 11:53:56;;;;;;;;;;;;;;;;;;5063712;28;20372;-63
2022/10/12 11:56:21;;;;;;;;;;;;;;;;;;5062400;28;19919;-62
2022/10/12 11:58:46;;;;;;;;;;;;;;;;;;5064175;28;20388;-63
2022/10/12 12:01:11;;;;;;;;;;;;;;;;;;5099820;28;19962;-63
2022/10/12 12:03:37;;;;;;;;;;;;;;;;;;5072810;28;20380;-63
2022/10/12 12:06:02;;;;;;;;;;;;;;;;;;5059519;28;20423;-63
2022/10/12 12:08:27;;;;;;;;;;;;;;;;;;5068207;28;19963;-63
2022/10/12 12:10:52;;;;;;;;;;;;;;;;;;5056439;28;20381;-63
2022/10/12 12:13:18;;;;;;;;;;;;;;;;;;5065529;28;19912;-63
2022/10/12 12:15:43;;;;;;;;;;;;;;;;;;5067023;28;20377;-62
2022/10/12 12:18:08;;;;;;;;;;;;;;;;;;5072252;28;20262;-62
2022/10/12 12:20:33;;;;;;;;;;;;;;;;;;5065929;28;19917;-63
2022/10/12 12:22:59;;;;;;;;;;;;;;;;;;5063462;28;19919;-62
2022/10/12 12:25:24;;;;;;;;;;;;;;;;;;5068002;28;19924;-63
2022/10/12 12:27:49;;;;;;;;;;;;;;;;;;5090636;28;19977;-62
2022/10/12 12:30:14;;;;;;;;;;;;;;;;;;5102708;28;20174;-63
2022/10/12 12:32:39;;;;;;;;;;;;;;;;;;5065303;28;19912;-62
2022/10/12 12:35:04;;;;;;;;;;;;;;;;;;5070357;28;19916;-63
2022/10/12 12:37:30;;;;;;;;;;;;;;;;;;5071986;28;19916;-63
2022/10/12 12:39:55;;;;;;;;;;;;;;;;;;5067329;28;20414;-63
2022/10/12 12:42:20;;;;;;;;;;;;;;;;;;5090784;28;19952;-63
2022/10/12 12:44:45;;;;;;;;;;;;;;;;;;5055567;28;19917;-61
2022/10/12 12:47:11;;;;;;;;;;;;;;;;;;5098799;28;19920;-62
2022/10/12 12:49:36;;;;;;;;;;;;;;;;;;5091009;28;19995;-62
2022/10/12 12:52:01;;;;;;;;;;;;;;;;;;5060991;28;19963;-63
2022/10/12 12:54:26;;;;;;;;;;;;;;;;;;5073507;28;19936;-63
2022/10/12 12:56:51;;;;;;;;;;;;;;;;;;5079948;28;19919;-63
2022/10/12 12:59:16;;;;;;;;;;;;;;;;;;5098749;28;19966;-63
2022/10/12 13:01:41;;;;;;;;;;;;;;;;;;5058477;28;19912;-62
2022/10/12 13:04:07;;;;;;;;;;;;;;;;;;5077495;28;19912;-63
2022/10/12 13:06:32;;;;;;;;;;;;;;;;;;5065678;28;20339;-62
2022/10/12 13:08:57;;;;;;;;;;;;;;;;;;5080595;28;19916;-63
2022/10/12 13:11:22;;;;;;;;;;;;;;;;;;5076128;28;19981;-62
2022/10/12 13:13:47;;;;;;;;;;;;;;;;;;5063074;28;19912;-63
2022/10/12 13:16:13;;;;;;;;;;;;;;;;;;5055895;28;20286;-62
2022/10/12 13:18:38;;;;;;;;;;;;;;;;;;5101937;28;19956;-63
2022/10/12 13:21:03;;;;;;;;;;;;;;;;;;5064465;28;19966;-62
2022/10/12 13:23:28;;;;;;;;;;;;;;;;;;5068707;28;19923;-66
2022/10/12 13:25:54;;;;;;;;;;;;;;;;;;5100645;28;19916;-64
2022/10/12 13:28:19;;;;;;;;;;;;;;;;;;5068618;28;19955;-64
2022/10/12 13:30:44;;;;;;;;;;;;;;;;;;5095693;28;20300;-64
2022/10/12 13:33:10;;;;;;;;;;;;;;;;;;5062610;28;20380;-63
2022/10/12 13:35:35;;;;;;;;;;;;;;;;;;5055358;28;19966;-64
2022/10/12 13:38:00;;;;;;;;;;;;;;;;;;5075255;28;19908;-64
2022/10/12 13:40:25;;;;;;;;;;;;;;;;;;5073387;28;19908;-64
2022/10/12 13:42:50;;;;;;;;;;;;;;;;;;5055746;28;19963;-63
2022/10/12 13:45:15;;;;;;;;;;;;;;;;;;5072114;28;20262;-62
2022/10/12 13:47:41;;;;;;;;;;;;;;;;;;5106460;28;20053;-63
2022/10/12 13:50:06;;;;;;;;;;;;;;;;;;5067608;28;19920;-63
2022/10/12 13:52:31;;;;;;;;;;;;;;;;;;5065557;28;20289;-62
2022/10/12 13:54:56;;;;;;;;;;;;;;;;;;5066663;28;19912;-63
2022/10/12 13:57:21;;;;;;;;;;;;;;;;;;5072697;28;20029;-63
2022/10/12 13:59:46;;;;;;;;;;;;;;;;;;5072946;28;20365;-64
2022/10/12 14:02:12;;;;;;;;;;;;;;;;;;5098472;28;19913;-64
2022/10/12 14:04:37;;;;;;;;;;;;;;;;;;5073775;28;19995;-62
2022/10/12 14:07:02;;;;;;;;;;;;;;;;;;5100251;28;20004;-63
2022/10/12 14:09:27;;;;;;;;;;;;;;;;;;5072470;28;19922;-64
2022/10/12 14:11:52;;;;;;;;;;;;;;;;;;5074921;28;19917;-64
2022/10/12 14:14:17;;;;;;;;;;;;;;;;;;5068555;28;19916;-69
2022/10/12 14:16:43;;;;;;;;;;;;;;;;;;5097590;28;19974;-63
2022/10/12 14:19:08;;;;;;;;;;;;;;;;;;5056166;28;20297;-63
2022/10/12 14:21:33;;;;;;;;;;;;;;;;;;5066346;28;20399;-63
2022/10/12 14:23:58;;;;;;;;;;;;;;;;;;5061717;28;19967;-63
2022/10/12 14:26:23;;;;;;;;;;;;;;;;;;5096206;28;19994;-62
2022/10/12 14:28:48;;;;;;;;;;;;;;;;;;5105781;28;19974;-63
2022/10/12 14:31:13;;;;;;;;;;;;;;;;;;5105867;28;19928;-63
2022/10/12 14:33:39;;;;;;;;;;;;;;;;;;5063201;28;19912;-64
2022/10/12 14:36:04;;;;;;;;;;;;;;;;;;5095706;28;19978;-63
2022/10/12 14:38:29;;;;;;;;;;;;;;;;;;5073288;28;20379;-63
2022/10/12 14:40:54;;;;;;;;;;;;;;;;;;5104492;28;19916;-62
2022/10/12 14:43:19;;;;;;;;;;;;;;;;;;5062076;28;20008;-63
2022/10/12 14:45:44;;;;;;;;;;;;;;;;;;5070764;28;19920;-64
2022/10/12 14:48:09;;;;;;;;;;;;;;;;;;5065648;28;19917;-63
2022/10/12 14:50:35;;;;;;;;;;;;;;;;;;5094740;28;19927;-63
2022/10/12 14:53:00;;;;;;;;;;;;;;;;;;5055974;28;19916;-62
2022/10/12 14:55:25;;;;;;;;;;;;;;;;;;5062286;28;19916;-63
2022/10/12 14:57:50;;;;;;;;;;;;;;;;;;5059789;28;19920;-64
2022/10/12 15:00:15;;;;;;;;;;;;;;;;;;5071325;28;19951;-63
2022/10/12 15:02:40;;;;;;;;;;;;;;;;;;5057617;28;20345;-63
2022/10/12 15:05:06;;;;;;;;;;;;;;;;;;5069700;28;20457;-63
2022/10/12 15:07:31;;;;;;;;;;;;;;;;;;5061832;28;19920;-63
2022/10/12 15:09:56;;;;;;;;;;;;;;;;;;5067579;28;19943;-62
2022/10/12 15:12:21;;;;;;;;;;;;;;;;;;5057418;28;19999;-63
2022/10/12 15:14:48;;;;;;;;;;;;;;;;;;5070983;28;19913;-63
2022/10/12 15:17:13;;;;;;;;;;;;;;;;;;5098315;28;19920;-62
2022/10/12 15:19:38;;;;;;;;;;;;;;;;;;5098452;28;20095;-63
2022/10/12 15:22:03;;;;;;;;;;;;;;;;;;5062513;28;19920;-63
2022/10/12 15:24:28;;;;;;;;;;;;;;;;;;5063565;28;19923;-63
2022/10/12 15:26:55;;;;;;;;;;;;;;;;;;5061740;28;21634;-62
2022/10/12 15:29:20;;;;;;;;;;;;;;;;;;5065981;28;19940;-63
2022/10/12 15:31:45;;;;;;;;;;;;;;;;;;5068526;28;20301;-62
2022/10/12 15:34:11;;;;;;;;;;;;;;;;;;5057310;28;19967;-63
2022/10/12 15:36:36;;;;;;;;;;;;;;;;;;5070712;28;19921;-62
2022/10/12 15:39:01;;;;;;;;;;;;;;;;;;5067169;28;19955;-63
2022/10/12 15:41:26;;;;;;;;;;;;;;;;;;5074373;28;19912;-63
2022/10/12 15:43:51;;;;;;;;;;;;;;;;;;5063350;28;19909;-62
2022/10/12 15:46:17;;;;;;;;;;;;;;;;;;5104402;28;20395;-63
2022/10/12 15:48:42;;;;;;;;;;;;;;;;;;5066372;28;19916;-63
2022/10/12 15:51:07;;;;;;;;;;;;;;;;;;5057130;28;19951;-63
2022/10/12 15:53:33;;;;;;;;;;;;;;;;;;5060865;28;19927;-62
2022/10/12 15:55:58;;;;;;;;;;;;;;;;;;5078843;28;19912;-63
2022/10/12 15:58:23;;;;;;;;;;;;;;;;;;5066946;28;20325;-63
2022/10/12 16:00:48;;;;;;;;;;;;;;;;;;5053092;28;20289;-63
2022/10/12 16:03:13;;;;;;;;;;;;;;;;;;5055745;28;19939;-63
2022/10/12 16:05:38;;;;;;;;;;;;;;;;;;5068464;28;19935;-63
2022/10/12 16:08:03;;;;;;;;;;;;;;;;;;5067154;28;20028;-62
2022/10/12 16:10:29;;;;;;;;;;;;;;;;;;5094727;28;19916;-63
2022/10/12 16:12:54;;;;;;;;;;;;;;;;;;5062769;28;20019;-63
2022/10/12 16:15:20;;;;;;;;;;;;;;;;;;5057621;28;20295;-63
2022/10/12 16:17:45;;;;;;;;;;;;;;;;;;5058329;28;19916;-64
2022/10/12 16:20:11;;;;;;;;;;;;;;;;;;5066721;28;19913;-64
2022/10/12 16:22:36;;;;;;;;;;;;;;;;;;5071598;28;19958;-63
2022/10/12 16:25:02;;;;;;;;;;;;;;;;;;5064614;28;19959;-63
2022/10/12 16:27:27;;;;;;;;;;;;;;;;;;5096457;28;19921;-63
2022/10/12 16:29:52;;;;;;;;;;;;;;;;;;5063120;28;19913;-63
2022/10/12 16:32:17;;;;;;;;;;;;;;;;;;5070495;28;19928;-63